LSZR/ACH METAR and TAF weather

Enter ICAO airport designator
Station Type Date Time Source
LSZR METAR 2021/03/05 06:20 UTC NOAA

LSZR 050620Z VRB02KT 9999 -SHRA BKN015 06/06 Q1019 NOSIG RMK B


Station Type Date Time Source
LSZR Decoded METAR 2021/03/05 06:20 UTC NOAA

Saint Gallen-Altenrhein, Switzerland (LSZR) 47-29-06N 009-33-43E
Mar 05, 2021 - 01:20 AM EST / 2021.03.05 0620 UTC
Wind: Variable at 2 MPH (2 KT):0
Visibility: greater than 7 mile(s):0
Sky conditions: mostly cloudy
Weather: light rain showers
Temperature: 42 F (6 C)
Dew Point: 42 F (6 C)
Relative Humidity: 100%
Pressure (altimeter): 30.09 in. Hg (1019 hPa)
ob: LSZR 050620Z VRB02KT 9999 -SHRA BKN015 06/06 Q1019 NOSIG RMK B
cycle: 6

Station Type Date Time Source
LSZR TAF 2014/12/22 20:03 UTC NOAA

TAF
AMD LSZR 222054Z 2220/2224 CNL

Example: see airport list